Time;durP1;ratioP1;P1;durP2;ratioP2;P2;SDS_P1;SDS_P2;PMS_P1;PMS_P2;Temp;Humidity;BMP_temperature;BMP_pressure;BME280_temperature;BME280_humidity;BME280_pressure;Samples;Min_cycle;Max_cycle;Signal;HPM_P1;HPM_P2
2021/12/11 00:02:18;;;;;;;42.83;25.20;;;;;;;;;;5091323;28;20129;-60
2021/12/11 00:04:48;;;;;;;45.08;25.80;;;0.20;99.90;;;;;;5090878;28;20090;-60
2021/12/11 00:07:16;;;;;;;40.28;25.17;;;;;;;;;;5091562;28;20036;-62
2021/12/11 00:09:48;;;;;;;47.50;25.98;;;0.00;99.90;;;;;;5090911;28;20040;-61
2021/12/11 00:12:16;;;;;;;40.58;24.50;;;;;;;;;;5091060;28;20047;-61
2021/12/11 00:14:45;;;;;;;42.60;23.85;;;;;;;;;;5090660;28;20036;-61
2021/12/11 00:17:11;;;;;;;41.55;24.65;;;0.10;99.90;;;;;;5092726;28;20051;-61
2021/12/11 00:19:38;;;;;;;38.53;23.20;;;;;;;;;;5094814;28;20064;-60
2021/12/11 00:22:09;;;;;;;42.65;22.40;;;;;;;;;;5093886;28;20060;-60
2021/12/11 00:24:36;;;;;;;36.55;19.80;;;;;;;;;;5093534;28;20036;-61
2021/12/11 00:27:07;;;;;;;36.45;21.13;;;;;;;;;;5093566;28;20036;-59
2021/12/11 00:29:34;;;;;;;35.20;18.77;;;;;;;;;;5094009;28;20051;-59
2021/12/11 00:32:04;;;;;;;32.35;20.17;;;-0.10;99.90;;;;;;5094770;28;20059;-61
2021/12/11 00:34:30;;;;;;;60.30;33.88;;;0.00;99.90;;;;;;5094995;28;20526;-61
2021/12/11 00:36:59;;;;;;;62.95;32.63;;;;;;;;;;5095264;28;20122;-60
2021/12/11 00:39:25;;;;;;;51.00;26.27;;;;;;;;;;5094705;28;20597;-59
2021/12/11 00:41:53;;;;;;;44.88;25.20;;;;;;;;;;5094947;28;20051;-60
2021/12/11 00:44:19;;;;;;;43.70;23.80;;;;;;;;;;5076942;28;20044;-60
2021/12/11 00:46:46;;;;;;;38.17;22.23;;;;;;;;;;5095054;28;20051;-58
2021/12/11 00:49:12;;;;;;;46.10;23.70;;;;;;;;;;5094634;28;20219;-60
2021/12/11 00:51:38;;;;;;;42.17;24.70;;;;;;;;;;5096011;28;20505;-59
2021/12/11 00:54:04;;;;;;;43.10;24.02;;;;;;;;;;5085548;28;20036;-58
2021/12/11 00:56:33;;;;;;;42.17;24.63;;;;;;;;;;5074344;28;20459;-58
2021/12/11 00:59:01;;;;;;;46.33;24.77;;;-0.30;99.90;;;;;;5074109;28;20045;-60
2021/12/11 01:01:30;;;;;;;49.42;26.25;;;-0.10;99.90;;;;;;5074416;28;20047;-60
2021/12/11 01:04:01;;;;;;;50.75;26.77;;;;;;;;;;5074285;28;20047;-59
2021/12/11 01:06:32;;;;;;;44.60;26.05;;;0.10;99.90;;;;;;5055969;28;20052;-59
2021/12/11 01:09:05;;;;;;;38.40;21.45;;;0.00;99.90;;;;;;5073943;28;20102;-58
2021/12/11 01:11:33;;;;;;;39.38;21.00;;;;;;;;;;5073983;28;20090;-59
2021/12/11 01:14:35;;;;;;;36.80;20.75;;;;;;;;;;5074336;28;20041;-61
2021/12/11 01:17:04;;;;;;;38.08;21.05;;;;;;;;;;5084756;28;20047;-62
2021/12/11 01:19:36;;;;;;;37.67;21.90;;;-0.50;99.90;;;;;;5090513;28;20044;-62
2021/12/11 01:22:11;;;;;;;42.85;23.92;;;0.00;99.90;;;;;;5075537;28;20105;-59
2021/12/11 01:24:43;;;;;;;40.42;23.02;;;;;;;;;;5093223;28;20047;-61
2021/12/11 01:27:11;;;;;;;34.40;20.60;;;;;;;;;;5072795;28;20274;-61
2021/12/11 01:29:37;;;;;;;40.28;20.98;;;;;;;;;;5072184;28;20192;-61
2021/12/11 01:32:04;;;;;;;37.20;21.38;;;-0.70;99.90;;;;;;5074134;28;20081;-62
2021/12/11 01:34:30;;;;;;;37.13;21.60;;;-0.90;99.90;;;;;;5072080;28;20045;-61
2021/12/11 01:36:56;;;;;;;38.72;21.75;;;;;;;;;;5074002;28;20383;-62
2021/12/11 01:39:24;;;;;;;36.47;19.52;;;;;;;;;;5093160;28;20115;-61
2021/12/11 01:41:51;;;;;;;33.72;19.95;;;;;;;;;;5094208;28;20102;-61
2021/12/11 01:44:21;;;;;;;34.35;20.10;;;-0.60;99.90;;;;;;5093815;28;20050;-61
2021/12/11 01:46:48;;;;;;;34.20;20.10;;;;;;;;;;5093734;28;20043;-61
2021/12/11 01:49:23;;;;;;;32.42;19.20;;;;;;;;;;5093028;28;20047;-61
2021/12/11 01:51:54;;;;;;;33.63;19.63;;;;;;;;;;5093902;28;20051;-60
2021/12/11 01:54:30;;;;;;;39.42;19.95;;;;;;;;;;5075185;28;20502;-60
2021/12/11 01:57:01;;;;;;;63.95;22.45;;;;;;;;;;5074041;28;20040;-61
2021/12/11 01:59:30;;;;;;;44.10;19.42;;;;;;;;;;5090584;28;20105;-59
2021/12/11 02:02:03;;;;;;;32.88;19.23;;;;;;;;;;5075148;28;20115;-59
2021/12/11 02:04:29;;;;;;;40.88;21.38;;;;;;;;;;5092067;28;20410;-60
2021/12/11 02:06:56;;;;;;;33.72;18.30;;;;;;;;;;5092711;28;20101;-61
2021/12/11 02:09:25;;;;;;;34.72;19.63;;;;;;;;;;5092152;28;20406;-60
2021/12/11 02:12:00;;;;;;;39.00;21.67;;;;;;;;;;5088944;28;20032;-60
2021/12/11 02:14:33;;;;;;;;;;;;;;;;;;5089353;28;20032;-60
2021/12/11 02:17:01;;;;;;;38.70;20.67;;;;;;;;;;5086138;28;19995;-60
2021/12/11 02:19:32;;;;;;;36.58;21.33;;;;;;;;;;5088925;28;20498;-60
2021/12/11 02:21:58;;;;;;;35.05;19.90;;;;;;;;;;5092881;28;20071;-60
2021/12/11 02:24:31;;;;;;;41.05;21.38;;;;;;;;;;5091796;28;20063;-59
2021/12/11 02:26:57;;;;;;;30.45;18.88;;;;;;;;;;5091239;28;20405;-59
2021/12/11 02:29:23;;;;;;;42.42;21.38;;;;;;;;;;5092823;28;20079;-59
2021/12/11 02:31:58;;;;;;;41.22;22.70;;;;;;;;;;5091443;28;20072;-60
2021/12/11 02:34:27;;;;;;;37.22;21.15;;;;;;;;;;5092383;28;20068;-60
2021/12/11 02:37:00;;;;;;;34.90;19.85;;;;;;;;;;5091835;28;20043;-60
2021/12/11 02:39:36;;;;;;;40.55;21.73;;;-0.90;99.90;;;;;;5088647;28;20068;-61
2021/12/11 02:42:15;;;;;;;35.55;20.88;;;;;;;;;;5092010;28;20038;-60
2021/12/11 02:44:50;;;;;;;38.80;21.27;;;-1.30;99.90;;;;;;5091505;28;20028;-59
2021/12/11 02:47:28;;;;;;;40.28;22.17;;;;;;;;;;5092470;28;20371;-61
2021/12/11 02:50:11;;;;;;;35.67;20.20;;;-1.10;99.90;;;;;;5090734;28;20032;-61
2021/12/11 02:52:58;;;;;;;34.72;18.92;;;;;;;;;;5091545;28;20035;-61
2021/12/11 02:55:34;;;;;;;37.88;19.27;;;-1.30;99.90;;;;;;5073806;28;20036;-60
2021/12/11 02:58:16;;;;;;;34.10;17.92;;;-1.70;99.90;;;;;;5092442;28;20418;-60
2021/12/11 03:00:45;;;;;;;30.02;17.20;;;;;;;;;;5091669;28;20121;-59
2021/12/11 03:03:13;;;;;;;33.90;18.48;;;-1.20;99.90;;;;;;5073528;28;20054;-60
2021/12/11 03:05:52;;;;;;;31.17;17.52;;;-1.20;99.90;;;;;;5091975;28;20051;-59
2021/12/11 03:08:19;;;;;;;29.40;17.95;;;;;;;;;;5087966;28;20402;-61
2021/12/11 03:10:47;;;;;;;30.52;18.50;;;;;;;;;;5070449;28;20048;-59
2021/12/11 03:13:14;;;;;;;28.60;16.73;;;-1.00;99.90;;;;;;5073750;28;20028;-59
2021/12/11 03:15:40;;;;;;;29.38;16.35;;;;;;;;;;5090900;28;20032;-59
2021/12/11 03:18:07;;;;;;;31.85;17.98;;;-1.80;99.90;;;;;;5089027;28;20036;-59
2021/12/11 03:20:34;;;;;;;37.83;17.95;;;;;;;;;;5073854;28;20077;-58
2021/12/11 03:23:00;;;;;;;31.27;18.42;;;;;;;;;;5091892;28;20402;-60
2021/12/11 03:25:28;;;;;;;35.67;17.38;;;-1.70;99.90;;;;;;5070495;28;20048;-59
2021/12/11 03:27:55;;;;;;;40.17;19.55;;;;;;;;;;5072217;28;20081;-60
2021/12/11 03:30:23;;;;;;;34.78;17.33;;;;;;;;;;5090519;28;20724;-58
2021/12/11 03:32:50;;;;;;;75.25;23.80;;;;;;;;;;5091734;28;20036;-60
2021/12/11 03:35:16;;;;;;;35.78;18.52;;;;;;;;;;5090935;28;20502;-60
2021/12/11 03:37:43;;;;;;;34.88;18.30;;;;;;;;;;5092354;28;20070;-58
2021/12/11 03:40:10;;;;;;;35.25;20.25;;;;;;;;;;5091218;28;20032;-58
2021/12/11 03:42:37;;;;;;;30.70;16.83;;;;;;;;;;5090301;28;20028;-60
2021/12/11 03:45:05;;;;;;;34.38;18.23;;;;;;;;;;5091339;28;20421;-58
2021/12/11 03:47:33;;;;;;;28.35;17.60;;;;;;;;;;5089672;22;20132;-55
2021/12/11 03:49:59;;;;;;;35.58;19.35;;;;;;;;;;5050849;28;20045;-53
2021/12/11 03:52:25;;;;;;;37.20;19.95;;;-1.40;99.90;;;;;;5050033;28;20499;-53
2021/12/11 03:54:52;;;;;;;38.25;20.23;;;;;;;;;;5050209;28;20077;-55
2021/12/11 03:57:20;;;;;;;37.72;21.63;;;;;;;;;;5050591;28;20037;-56
2021/12/11 03:59:48;;;;;;;38.75;22.10;;;;;;;;;;5051097;28;20036;-55
2021/12/11 04:02:15;;;;;;;30.73;20.02;;;-1.50;99.90;;;;;;5050431;28;20048;-55
2021/12/11 04:04:43;;;;;;;34.00;20.90;;;;;;;;;;5049908;28;20049;-55
2021/12/11 04:07:13;;;;;;;40.13;21.33;;;;;;;;;;5049828;28;20033;-55
2021/12/11 04:09:39;;;;;;;37.42;20.88;;;;;;;;;;5050122;28;20037;-54
2021/12/11 04:12:06;;;;;;;39.55;21.67;;;;;;;;;;5016459;28;20407;-53
2021/12/11 04:14:34;;;;;;;36.60;21.52;;;;;;;;;;5049315;28;20032;-55
2021/12/11 04:17:00;;;;;;;39.92;22.38;;;;;;;;;;5050547;28;20072;-56
2021/12/11 04:19:26;;;;;;;40.00;22.92;;;;;;;;;;5050195;28;20488;-56
2021/12/11 04:21:53;;;;;;;47.85;23.23;;;;;;;;;;5049682;28;20136;-54
2021/12/11 04:24:21;;;;;;;43.15;21.55;;;;;;;;;;5050254;28;20041;-56
2021/12/11 04:26:49;;;;;;;41.83;22.35;;;;;;;;;;5048183;28;20423;-56
2021/12/11 04:29:15;;;;;;;41.78;22.80;;;;;;;;;;5049651;28;20045;-55
2021/12/11 04:31:43;;;;;;;41.45;23.35;;;-1.10;99.90;;;;;;5049312;28;20048;-56
2021/12/11 04:34:13;;;;;;;40.72;22.38;;;;;;;;;;5049981;28;20060;-55
2021/12/11 04:36:45;;;;;;;40.70;23.35;;;;;;;;;;5032333;28;20045;-57
2021/12/11 04:39:14;;;;;;;36.60;22.95;;;;;;;;;;5047428;28;20170;-57
2021/12/11 04:41:50;;;;;;;40.95;21.98;;;-0.70;99.90;;;;;;5048765;28;20483;-54
2021/12/11 04:44:22;;;;;;;40.78;22.33;;;;;;;;;;5049349;28;20052;-56
2021/12/11 04:46:49;;;;;;;40.10;23.85;;;-1.30;99.90;;;;;;5048387;28;20060;-56
2021/12/11 04:49:29;;;;;;;38.58;21.90;;;-1.30;99.90;;;;;;5049507;28;20048;-56
2021/12/11 04:52:04;;;;;;;38.95;21.60;;;-1.20;99.90;;;;;;5033771;28;20033;-56
2021/12/11 04:57:34;;;;;;;34.00;18.98;;;-1.40;99.90;;;;;;5050363;28;19916;-56
2021/12/11 05:00:06;;;;;;;37.78;21.10;;;;;;;;;;5050110;28;20073;-56
2021/12/11 05:02:58;;;;;;;37.50;20.88;;;-0.80;99.90;;;;;;5050570;28;20114;-56
2021/12/11 05:05:43;;;;;;;45.08;22.95;;;-1.40;99.90;;;;;;5053470;28;20080;-56
2021/12/11 05:09:00;;;;;;;39.22;21.98;;;-1.40;99.90;;;;;;5053143;28;20380;-56
2021/12/11 05:11:15;;;;;;;36.67;20.90;;;;;;;;;;5051941;28;20049;-56
2021/12/11 05:13:42;;;;;;;40.28;21.50;;;;;;;;;;5053311;28;20076;-56
2021/12/11 05:16:10;;;;;;;34.65;19.27;;;;;;;;;;5052633;28;20127;-57
2021/12/11 05:18:37;;;;;;;39.60;19.60;;;;;;;;;;5052358;28;20041;-56
2021/12/11 05:21:06;;;;;;;37.22;19.85;;;-1.80;99.90;;;;;;5053082;28;20072;-56
2021/12/11 05:23:32;;;;;;;35.25;20.88;;;;;;;;;;5052932;28;20063;-57
2021/12/11 05:25:58;;;;;;;34.88;19.30;;;;;;;;;;5033588;28;20128;-56
2021/12/11 05:28:25;;;;;;;34.97;19.77;;;;;;;;;;5051487;28;20071;-55
2021/12/11 05:30:53;;;;;;;35.75;19.70;;;;;;;;;;5052690;28;20040;-57
2021/12/11 05:33:20;;;;;;;37.90;21.00;;;;;;;;;;5035245;28;20045;-56
2021/12/11 05:35:47;;;;;;;41.63;21.92;;;;;;;;;;5051965;28;20488;-54
2021/12/11 05:38:13;;;;;;;36.70;20.17;;;;;;;;;;5053611;28;20048;-55
2021/12/11 05:40:42;;;;;;;36.28;22.45;;;-1.60;99.90;;;;;;5052600;28;20044;-56
2021/12/11 05:43:09;;;;;;;36.83;21.10;;;-1.50;99.90;;;;;;5052346;28;20513;-55
2021/12/11 05:45:34;;;;;;;35.92;20.05;;;-1.50;99.90;;;;;;5052566;28;20162;-54
2021/12/11 05:48:01;;;;;;;37.47;20.95;;;;;;;;;;5052862;28;20083;-56
2021/12/11 05:50:30;;;;;;;33.53;19.92;;;;;;;;;;5053169;28;20044;-56
2021/12/11 05:52:56;;;;;;;40.60;21.67;;;;;;;;;;5036162;28;20277;-53
2021/12/11 05:55:24;;;;;;;39.70;22.48;;;;;;;;;;5052876;28;20045;-56
2021/12/11 05:57:53;;;;;;;44.60;24.77;;;-1.40;99.90;;;;;;5035379;28;20462;-56
2021/12/11 06:00:25;;;;;;;43.78;24.35;;;-1.60;99.90;;;;;;5052852;28;20483;-54
2021/12/11 06:02:51;;;;;;;48.92;24.98;;;;;;;;;;5053102;28;20139;-56
2021/12/11 06:05:18;;;;;;;43.97;23.42;;;;;;;;;;5052976;28;20041;-55
2021/12/11 06:07:44;;;;;;;43.10;23.98;;;;;;;;;;5053018;28;20032;-56
2021/12/11 06:10:16;;;;;;;42.85;21.80;;;-0.80;99.90;;;;;;5053102;28;20077;-56
2021/12/11 06:12:42;;;;;;;46.60;23.05;;;;;;;;;;5052818;28;20523;-54
2021/12/11 06:15:08;;;;;;;40.95;23.00;;;-0.90;99.90;;;;;;5046930;28;20067;-56
2021/12/11 06:17:35;;;;;;;41.08;22.05;;;-1.40;99.90;;;;;;5052883;28;20037;-55
2021/12/11 06:20:04;;;;;;;38.10;21.70;;;;;;;;;;5052639;28;20037;-53
2021/12/11 06:22:31;;;;;;;39.28;23.75;;;;;;;;;;5053009;28;20040;-55
2021/12/11 06:24:59;;;;;;;44.13;25.13;;;;;;;;;;5052266;28;20527;-53
2021/12/11 06:27:26;;;;;;;45.92;25.58;;;;;;;;;;5052762;28;20044;-56
2021/12/11 06:29:52;;;;;;;47.40;24.45;;;-0.90;99.90;;;;;;5052749;28;20099;-54
2021/12/11 06:32:18;;;;;;;51.53;25.55;;;;;;;;;;5052653;28;20404;-53
2021/12/11 06:34:44;;;;;;;44.20;23.88;;;;;;;;;;5052155;28;20049;-55
2021/12/11 06:37:14;;;;;;;48.00;26.13;;;;;;;;;;5052307;28;20199;-53
2021/12/11 06:39:40;;;;;;;44.53;25.52;;;;;;;;;;5052481;28;20543;-53
2021/12/11 06:42:09;;;;;;;50.08;27.27;;;;;;;;;;5052505;28;20055;-55
2021/12/11 06:44:36;;;;;;;48.20;24.58;;;-1.20;99.90;;;;;;5052154;28;20045;-56
2021/12/11 06:47:04;;;;;;;50.17;25.15;;;;;;;;;;5051979;28;20486;-53
2021/12/11 06:49:31;;;;;;;45.50;23.55;;;;;;;;;;5052198;28;20119;-52
2021/12/11 06:51:57;;;;;;;39.92;22.08;;;;;;;;;;5051480;28;20054;-53
2021/12/11 06:54:25;;;;;;;40.90;23.23;;;;;;;;;;5051411;28;20043;-54
2021/12/11 06:56:51;;;;;;;34.80;19.70;;;;;;;;;;5051528;28;20411;-55
2021/12/11 06:59:17;;;;;;;40.28;20.83;;;;;;;;;;5051302;28;20128;-53
2021/12/11 07:01:43;;;;;;;37.17;20.50;;;;;;;;;;5051326;28;20123;-55
2021/12/11 07:04:11;;;;;;;39.63;21.85;;;;;;;;;;5066351;28;20402;-54
2021/12/11 07:06:38;;;;;;;39.50;21.45;;;;;;;;;;5032780;28;20037;-51
2021/12/11 07:09:05;;;;;;;52.45;28.00;;;;;;;;;;5049168;28;20041;-52
2021/12/11 07:11:32;;;;;;;57.92;27.42;;;;;;;;;;5050697;28;20033;-52
2021/12/11 07:13:58;;;;;;;70.47;28.88;;;;;;;;;;5051523;28;20487;-53
2021/12/11 07:16:24;;;;;;;105.32;34.60;;;;;;;;;;5048222;28;20037;-53
2021/12/11 07:18:50;;;;;;;110.18;35.63;;;;;;;;;;5049884;28;20036;-53
2021/12/11 07:21:17;;;;;;;116.97;34.35;;;;;;;;;;5050223;28;20037;-52
2021/12/11 07:23:47;;;;;;;147.23;38.88;;;;;;;;;;5050227;28;20037;-50
2021/12/11 07:26:19;;;;;;;133.38;43.47;;;-1.00;99.90;;;;;;5050634;28;20099;-55
2021/12/11 07:28:47;;;;;;;139.80;44.58;;;;;;;;;;5050501;28;20044;-52
2021/12/11 07:31:14;;;;;;;132.93;43.78;;;;;;;;;;5049444;28;20041;-54
2021/12/11 07:33:40;;;;;;;118.75;40.75;;;;;;;;;;5049140;28;20044;-52
2021/12/11 07:36:06;;;;;;;125.93;40.60;;;;;;;;;;5048206;28;20033;-52
2021/12/11 07:38:32;;;;;;;64.60;31.23;;;;;;;;;;5048760;28;20640;-53
2021/12/11 07:40:59;;;;;;;78.57;32.70;;;;;;;;;;5049682;28;20044;-51
2021/12/11 07:43:27;;;;;;;111.70;36.70;;;-1.00;99.90;;;;;;5048070;28;20041;-54
2021/12/11 07:45:53;;;;;;;109.13;38.15;;;;;;;;;;5048703;28;20043;-55
2021/12/11 07:48:19;;;;;;;136.65;41.65;;;;;;;;;;5049911;28;20128;-52
2021/12/11 07:50:46;;;;;;;108.15;35.72;;;;;;;;;;5049960;28;20500;-52
2021/12/11 07:53:12;;;;;;;95.18;33.28;;;;;;;;;;5048463;28;20047;-53
2021/12/11 07:55:38;;;;;;;111.80;32.10;;;;;;;;;;5046724;28;20036;-53
2021/12/11 07:58:05;;;;;;;93.10;29.73;;;;;;;;;;5047997;28;20037;-52
2021/12/11 08:00:33;;;;;;;109.45;37.00;;;;;;;;;;5050215;28;20454;-51
2021/12/11 08:02:59;;;;;;;121.03;34.15;;;;;;;;;;5050317;28;20048;-52
2021/12/11 08:05:26;;;;;;;117.38;34.28;;;;;;;;;;5050642;28;20033;-51
2021/12/11 08:07:53;;;;;;;64.47;26.45;;;;;;;;;;5050326;28;20044;-52
2021/12/11 08:10:20;;;;;;;109.75;33.60;;;;;;;;;;5050563;28;20116;-52
2021/12/11 08:12:46;;;;;;;102.93;33.63;;;;;;;;;;5050129;28;20063;-52
2021/12/11 08:15:14;;;;;;;90.47;31.23;;;;;;;;;;5050171;28;20488;-54
2021/12/11 08:17:40;;;;;;;77.47;28.67;;;;;;;;;;5050388;28;20451;-51
2021/12/11 08:20:09;;;;;;;75.57;29.35;;;-0.70;99.90;;;;;;5050318;28;20131;-51
2021/12/11 08:22:35;;;;;;;78.78;30.80;;;;;;;;;;5050167;28;20403;-51
2021/12/11 08:25:03;;;;;;;71.95;30.38;;;-1.00;99.90;;;;;;5049294;28;20041;-54
2021/12/11 08:27:29;;;;;;;85.05;36.05;;;;;;;;;;5032161;28;20068;-51
2021/12/11 08:29:55;;;;;;;85.30;32.25;;;;;;;;;;5050009;28;20496;-51
2021/12/11 08:32:21;;;;;;;61.17;27.30;;;;;;;;;;5050677;28;20444;-52
2021/12/11 08:34:48;;;;;;;92.40;32.15;;;;;;;;;;5049865;28;20124;-52
2021/12/11 08:37:15;;;;;;;88.10;33.40;;;;;;;;;;5049202;28;20037;-52
2021/12/11 08:39:43;;;;;;;79.90;32.25;;;;;;;;;;5047883;28;20041;-51
2021/12/11 08:42:11;;;;;;;69.68;30.52;;;;;;;;;;5034338;28;20037;-52
2021/12/11 08:44:38;;;;;;;74.43;32.20;;;;;;;;;;5048574;28;20393;-51
2021/12/11 08:47:07;;;;;;;61.78;30.42;;;;;;;;;;5054373;28;20119;-52
2021/12/11 08:49:35;;;;;;;57.15;28.38;;;-1.10;99.90;;;;;;5054322;28;20110;-51
2021/12/11 08:52:10;;;;;;;48.63;27.02;;;;;;;;;;5053591;28;20458;-51
2021/12/11 08:54:37;;;;;;;52.45;28.90;;;;;;;;;;5035504;28;20380;-51
2021/12/11 08:57:05;;;;;;;56.83;29.83;;;;;;;;;;5047750;28;20484;-52
2021/12/11 08:59:33;;;;;;;46.05;27.20;;;-0.70;99.90;;;;;;5033793;28;20043;-54
2021/12/11 09:02:08;;;;;;;57.45;31.23;;;;;;;;;;5034275;28;20033;-52
2021/12/11 09:04:40;;;;;;;57.72;29.77;;;-0.50;99.90;;;;;;5033342;28;20045;-51
2021/12/11 09:07:09;;;;;;;51.60;29.30;;;;;;;;;;5034137;28;20393;-51
2021/12/11 09:09:39;;;;;;;50.22;29.98;;;;;;;;;;5033546;28;20519;-51
2021/12/11 09:12:05;;;;;;;49.65;27.83;;;;;;;;;;5033787;28;20132;-51
2021/12/11 09:14:37;;;;;;;49.05;28.65;;;0.20;99.90;;;;;;5033607;28;20051;-51
2021/12/11 09:17:15;;;;;;;50.92;29.08;;;;;;;;;;5033642;28;20120;-51
2021/12/11 09:20:09;;;;;;;52.53;28.98;;;;;;;;;;5033928;28;20095;-52
2021/12/11 09:22:41;;;;;;;48.05;27.35;;;;;;;;;;5031719;28;20397;-53
2021/12/11 09:25:24;;;;;;;50.97;28.75;;;0.30;99.90;;;;;;5033548;28;20477;-51
2021/12/11 09:27:56;;;;;;;48.58;26.70;;;-0.30;99.90;;;;;;5033643;28;20033;-51
2021/12/11 09:30:25;;;;;;;49.80;25.75;;;;;;;;;;5033716;28;20120;-52
2021/12/11 09:32:53;;;;;;;50.45;27.17;;;;;;;;;;5044928;28;20033;-53
2021/12/11 09:35:22;;;;;;;47.38;26.67;;;;;;;;;;5052717;28;20060;-51
2021/12/11 09:37:51;;;;;;;43.75;25.95;;;;;;;;;;5052573;28;20090;-52
2021/12/11 09:40:20;;;;;;;45.78;26.33;;;;;;;;;;5051990;28;20475;-53
2021/12/11 09:42:46;;;;;;;43.00;26.73;;;;;;;;;;5051980;28;20055;-51
2021/12/11 09:45:14;;;;;;;44.08;26.25;;;;;;;;;;5050811;28;20033;-53
2021/12/11 09:47:47;;;;;;;46.50;27.42;;;;;;;;;;5052884;28;20080;-52
2021/12/11 09:50:19;;;;;;;44.88;28.02;;;0.60;99.90;;;;;;5056501;22;20523;-72
2021/12/11 09:52:46;;;;;;;52.55;30.63;;;;;;;;;;5037481;28;20162;-72
2021/12/11 09:55:15;;;;;;;52.97;32.08;;;;;;;;;;5056581;28;20045;-72
2021/12/11 09:57:43;;;;;;;52.70;31.08;;;;;;;;;;5035312;28;20491;-72
2021/12/11 10:00:15;;;;;;;58.17;31.10;;;;;;;;;;5034438;28;20052;-72
2021/12/11 10:02:41;;;;;;;59.42;31.70;;;;;;;;;;5012949;28;20045;-72
2021/12/11 10:05:12;;;;;;;53.78;30.98;;;;;;;;;;5007330;28;20125;-72
2021/12/11 10:07:49;;;;;;;58.30;31.65;;;;;;;;;;5003474;28;20203;-72
2021/12/11 10:10:19;;;;;;;54.45;30.70;;;;;;;;;;5018512;28;20056;-72
2021/12/11 10:12:53;;;;;;;51.28;27.95;;;1.70;99.90;;;;;;5024718;28;20053;-72
2021/12/11 10:15:21;;;;;;;;;;;1.70;99.90;;;;;;5018740;28;20039;-71
2021/12/11 10:17:55;;;;;;;50.10;26.70;;;2.10;99.90;;;;;;5023085;28;19917;-71
2021/12/11 10:20:32;;;;;;;41.30;23.48;;;2.20;99.90;;;;;;5006891;28;20399;-71
2021/12/11 10:22:59;;;;;;;52.08;27.60;;;;;;;;;;5006399;28;20041;-72
2021/12/11 10:25:30;;;;;;;44.85;27.35;;;;;;;;;;5026368;28;20045;-71
2021/12/11 10:27:56;;;;;;;53.33;28.30;;;;;;;;;;5001482;28;20123;-71
2021/12/11 10:30:24;;;;;;;48.78;28.40;;;;;;;;;;5004890;28;20041;-72
2021/12/11 10:32:51;;;;;;;56.85;30.17;;;;;;;;;;5004069;28;20049;-71
2021/12/11 10:35:18;;;;;;;53.85;29.60;;;;;;;;;;5012628;28;20033;-71
2021/12/11 10:37:45;;;;;;;54.63;29.33;;;;;;;;;;5039774;23;20048;-88
2021/12/11 10:40:20;;;;;;;54.80;29.17;;;;;;;;;;5047765;28;20055;-87
2021/12/11 10:42:49;;;;;;;56.08;31.42;;;;;;;;;;5069374;28;20044;-87
2021/12/11 10:45:16;;;;;;;56.95;30.83;;;;;;;;;;5052372;28;20052;-88
2021/12/11 10:47:48;;;;;;;57.80;32.08;;;;;;;;;;5055502;28;20044;-87
2021/12/11 10:50:27;;;;;;;66.47;34.08;;;;;;;;;;5054287;28;20083;-87
2021/12/11 10:55:32;;;;;;;66.57;32.38;;;;;;;;;;5047571;28;20045;-57
2021/12/11 10:58:00;;;;;;;62.60;32.05;;;;;;;;;;5052243;28;20106;-56
2021/12/11 11:00:32;;;;;;;59.58;31.33;;;;;;;;;;5049656;28;20440;-57
2021/12/11 11:02:58;;;;;;;65.13;34.03;;;;;;;;;;5033914;28;20091;-58
2021/12/11 11:05:25;;;;;;;58.05;32.78;;;;;;;;;;5032894;28;20049;-57
2021/12/11 11:07:52;;;;;;;59.55;31.90;;;;;;;;;;5050597;28;20052;-58
2021/12/11 11:10:20;;;;;;;57.03;31.83;;;;;;;;;;5044109;28;20047;-57
2021/12/11 11:12:47;;;;;;;61.42;31.27;;;;;;;;;;5031278;28;20037;-56
2021/12/11 11:15:13;;;;;;;55.28;28.63;;;;;;;;;;5038672;28;20063;-55
2021/12/11 11:17:40;;;;;;;49.80;28.10;;;;;;;;;;5044057;28;20636;-55
2021/12/11 11:20:11;;;;;;;53.90;30.08;;;;;;;;;;5038149;28;20094;-55
2021/12/11 11:22:38;;;;;;;54.58;26.63;;;;;;;;;;5035096;28;20040;-56
2021/12/11 11:25:08;;;;;;;52.28;27.38;;;;;;;;;;5036649;28;20052;-55
2021/12/11 11:27:34;;;;;;;44.67;25.75;;;3.50;99.90;;;;;;5035209;28;20519;-54
2021/12/11 11:30:11;;;;;;;47.75;26.92;;;3.40;99.90;;;;;;5039712;28;20064;-56
2021/12/11 11:32:37;;;;;;;43.40;24.38;;;3.50;99.90;;;;;;5034397;28;20037;-55
2021/12/11 11:35:07;;;;;;;42.92;23.13;;;;;;;;;;5033067;28;20048;-55
2021/12/11 11:37:35;;;;;;;42.58;25.90;;;3.50;99.90;;;;;;5032099;28;20049;-55
2021/12/11 11:40:02;;;;;;;40.33;23.95;;;;;;;;;;5032143;28;20090;-54
2021/12/11 11:42:29;;;;;;;42.05;24.55;;;;;;;;;;5040470;28;20127;-55
2021/12/11 11:44:55;;;;;;;39.08;23.40;;;;;;;;;;5049907;28;20515;-55
2021/12/11 11:47:21;;;;;;;42.20;25.05;;;;;;;;;;5048089;28;20142;-55
2021/12/11 11:49:47;;;;;;;39.00;22.90;;;;;;;;;;5035721;28;20507;-56
2021/12/11 11:52:15;;;;;;;37.38;21.85;;;;;;;;;;5039775;28;20229;-55
2021/12/11 11:54:46;;;;;;;37.10;21.88;;;4.30;99.90;;;;;;5042205;28;20120;-56
2021/12/11 11:57:19;;;;;;;41.35;23.63;;;4.60;99.90;;;;;;5032691;28;20155;-56
2021/12/11 11:59:46;;;;;;;39.38;21.30;;;;;;;;;;5049993;28;20060;-56
2021/12/11 12:02:17;;;;;;;35.55;21.17;;;5.10;99.90;;;;;;5024092;28;20052;-56
2021/12/11 12:04:48;;;;;;;38.70;20.13;;;4.90;99.90;;;;;;5050219;28;20047;-56
2021/12/11 12:07:16;;;;;;;34.40;18.98;;;5.20;99.90;;;;;;5050060;28;20507;-54
2021/12/11 12:09:44;;;;;;;31.30;18.55;;;;;;;;;;5049836;28;20045;-56
2021/12/11 12:12:12;;;;;;;32.05;18.35;;;;;;;;;;5034957;28;20041;-56
2021/12/11 12:14:39;;;;;;;31.15;18.05;;;;;;;;;;5030832;28;20553;-56
2021/12/11 12:17:06;;;;;;;30.13;17.33;;;;;;;;;;5031550;28;20036;-55
2021/12/11 12:19:32;;;;;;;32.33;16.85;;;;;;;;;;5031289;28;20043;-56
2021/12/11 12:22:02;;;;;;;29.90;16.85;;;;;;;;;;5035901;28;20435;-55
2021/12/11 12:24:31;;;;;;;27.58;14.48;;;;;;;;;;5047365;28;20065;-54
2021/12/11 12:26:58;;;;;;;30.17;17.33;;;6.20;99.90;;;;;;5044299;28;20112;-55
2021/12/11 12:29:24;;;;;;;30.23;17.17;;;;;;;;;;5049995;28;20060;-53
2021/12/11 12:31:53;;;;;;;25.27;15.18;;;;;;;;;;5042262;28;20037;-55
2021/12/11 12:34:20;;;;;;;28.70;15.70;;;;;;;;;;5022233;28;20041;-56
2021/12/11 12:36:47;;;;;;;25.92;16.33;;;;;;;;;;5039154;28;20116;-54
2021/12/11 12:39:17;;;;;;;29.08;15.88;;;;;;;;;;5031341;28;20041;-55
2021/12/11 12:42:05;;;;;;;25.92;15.05;;;7.40;99.90;;;;;;5046131;28;20072;-54
2021/12/11 12:44:32;;;;;;;25.05;13.00;;;;;;;;;;5038996;28;20453;-56
2021/12/11 12:46:58;;;;;;;25.45;13.63;;;;;;;;;;5037953;28;20496;-56
2021/12/11 12:49:25;;;;;;;29.38;15.82;;;;;;;;;;5030995;28;20049;-55
2021/12/11 12:51:52;;;;;;;30.77;15.38;;;;;;;;;;5040848;28;20554;-55
2021/12/11 12:54:21;;;;;;;25.85;12.88;;;7.40;99.90;;;;;;5045893;28;20076;-55
2021/12/11 12:56:50;;;;;;;25.45;14.13;;;;;;;;;;5039180;28;20040;-54
2021/12/11 12:59:22;;;;;;;24.63;12.60;;;;;;;;;;5046704;28;20514;-56
2021/12/11 13:01:53;;;;;;;20.95;12.30;;;8.10;99.90;;;;;;5043004;28;20041;-55
2021/12/11 13:04:22;;;;;;;20.17;12.02;;;;;;;;;;5041622;28;20037;-56
2021/12/11 13:06:54;;;;;;;20.88;10.38;;;8.70;99.90;;;;;;5024432;28;20126;-53
2021/12/11 13:09:28;;;;;;;18.88;11.02;;;;;;;;;;5041207;28;20068;-55
2021/12/11 13:11:56;;;;;;;26.20;10.48;;;;;;;;;;5045526;28;20407;-56
2021/12/11 13:14:23;;;;;;;20.35;11.52;;;;;;;;;;5046159;28;20033;-56
2021/12/11 13:16:51;;;;;;;17.55;9.70;;;;;;;;;;5043291;28;20029;-55
2021/12/11 13:19:20;;;;;;;18.65;10.25;;;;;;;;;;5040814;28;20526;-56
2021/12/11 13:21:51;;;;;;;19.02;10.88;;;;;;;;;;5044259;28;20040;-55
2021/12/11 13:24:18;;;;;;;19.77;10.50;;;;;;;;;;5016924;28;20051;-56
2021/12/11 13:26:47;;;;;;;17.92;9.02;;;7.70;99.90;;;;;;5056394;28;20040;-56
2021/12/11 13:29:14;;;;;;;18.00;9.55;;;;;;;;;;5048233;28;20098;-53
2021/12/11 13:31:49;;;;;;;18.40;9.73;;;;;;;;;;5040838;28;20072;-55
2021/12/11 13:34:14;;;;;;;;;;;;;;;;;;5053461;28;20098;-54
2021/12/11 13:36:41;;;;;;;16.25;10.32;;;;;;;;;;5061199;28;20129;-54
2021/12/11 13:39:09;;;;;;;15.35;9.40;;;;;;;;;;5051814;28;20080;-52
2021/12/11 13:41:43;;;;;;;17.67;10.43;;;7.60;99.90;;;;;;5050258;28;20090;-56
2021/12/11 13:44:09;;;;;;;20.17;11.32;;;;;;;;;;5071742;28;20036;-56
2021/12/11 13:46:36;;;;;;;19.75;10.27;;;;;;;;;;5055776;28;20048;-56
2021/12/11 13:49:03;;;;;;;17.27;10.00;;;;;;;;;;5073717;28;20537;-56
2021/12/11 13:51:31;;;;;;;17.65;10.88;;;;;;;;;;5073809;28;20395;-55
2021/12/11 13:53:58;;;;;;;23.50;12.15;;;;;;;;;;5073825;28;20137;-56
2021/12/11 13:56:26;;;;;;;17.48;10.93;;;;;;;;;;5073599;28;20217;-56
2021/12/11 13:58:53;;;;;;;20.58;10.93;;;7.10;99.90;;;;;;5073525;28;20499;-52
2021/12/11 14:01:26;;;;;;;20.38;11.32;;;6.60;99.90;;;;;;5073482;28;20059;-56
2021/12/11 14:03:54;;;;;;;21.15;11.52;;;;;;;;;;5073934;28;20047;-56
2021/12/11 14:06:21;;;;;;;19.02;10.50;;;7.00;99.90;;;;;;5073281;28;20040;-55